sensor_id;sensor_type;location;lat;lon;timestamp;pressure;altitude;pressure_sealevel;temperature
15079;BMP180;6932;51.438;5.470;2023-04-03T00:02:08;102555.00;;;11.60
15079;BMP180;6932;51.438;5.470;2023-04-03T00:04:34;102553.00;;;11.60
15079;BMP180;6932;51.438;5.470;2023-04-03T00:07:00;102557.00;;;11.60
15079;BMP180;6932;51.438;5.470;2023-04-03T00:09:26;102554.00;;;11.60
15079;BMP180;6932;51.438;5.470;2023-04-03T00:11:52;102544.00;;;11.60
15079;BMP180;6932;51.438;5.470;2023-04-03T00:14:17;102552.00;;;11.60
15079;BMP180;6932;51.438;5.470;2023-04-03T00:16:43;102553.00;;;11.60
15079;BMP180;6932;51.438;5.470;2023-04-03T00:19:09;102554.00;;;11.50
15079;BMP180;6932;51.438;5.470;2023-04-03T00:21:37;102554.00;;;11.50
15079;BMP180;6932;51.438;5.470;2023-04-03T00:24:04;102555.00;;;11.50
15079;BMP180;6932;51.438;5.470;2023-04-03T00:26:29;102552.00;;;11.50
15079;BMP180;6932;51.438;5.470;2023-04-03T00:28:55;102555.00;;;11.50
15079;BMP180;6932;51.438;5.470;2023-04-03T00:31:21;102555.00;;;11.40
15079;BMP180;6932;51.438;5.470;2023-04-03T00:33:47;102554.00;;;11.40
15079;BMP180;6932;51.438;5.470;2023-04-03T00:36:13;102566.00;;;11.40
15079;BMP180;6932;51.438;5.470;2023-04-03T00:38:39;102556.00;;;11.40
15079;BMP180;6932;51.438;5.470;2023-04-03T00:41:06;102548.00;;;11.40
15079;BMP180;6932;51.438;5.470;2023-04-03T00:43:32;102555.00;;;11.40
15079;BMP180;6932;51.438;5.470;2023-04-03T00:45:59;102564.00;;;11.40
15079;BMP180;6932;51.438;5.470;2023-04-03T00:48:51;102559.00;;;11.40
15079;BMP180;6932;51.438;5.470;2023-04-03T00:51:24;102557.00;;;11.40
15079;BMP180;6932;51.438;5.470;2023-04-03T00:54:01;102562.00;;;11.40
15079;BMP180;6932;51.438;5.470;2023-04-03T00:56:29;102562.00;;;11.30
15079;BMP180;6932;51.438;5.470;2023-04-03T00:59:10;102575.00;;;11.30
15079;BMP180;6932;51.438;5.470;2023-04-03T01:01:37;102572.00;;;11.20
15079;BMP180;6932;51.438;5.470;2023-04-03T01:04:04;102570.00;;;11.20
15079;BMP180;6932;51.438;5.470;2023-04-03T01:06:36;102567.00;;;11.20
15079;BMP180;6932;51.438;5.470;2023-04-03T01:09:04;102566.00;;;11.10
15079;BMP180;6932;51.438;5.470;2023-04-03T01:11:30;102566.00;;;11.10
15079;BMP180;6932;51.438;5.470;2023-04-03T01:13:56;102572.00;;;11.00
15079;BMP180;6932;51.438;5.470;2023-04-03T01:16:22;102578.00;;;11.00
15079;BMP180;6932;51.438;5.470;2023-04-03T01:18:48;102572.00;;;11.00
15079;BMP180;6932;51.438;5.470;2023-04-03T01:22:01;102574.00;;;10.90
15079;BMP180;6932;51.438;5.470;2023-04-03T01:24:34;102574.00;;;10.90
15079;BMP180;6932;51.438;5.470;2023-04-03T01:27:04;102572.00;;;10.90
15079;BMP180;6932;51.438;5.470;2023-04-03T01:29:30;102583.00;;;10.90
15079;BMP180;6932;51.438;5.470;2023-04-03T01:31:59;102570.00;;;10.90
15079;BMP180;6932;51.438;5.470;2023-04-03T01:34:27;102572.00;;;10.90
15079;BMP180;6932;51.438;5.470;2023-04-03T01:36:54;102573.00;;;10.90
15079;BMP180;6932;51.438;5.470;2023-04-03T01:39:21;102574.00;;;10.80
15079;BMP180;6932;51.438;5.470;2023-04-03T01:41:47;102578.00;;;10.80
15079;BMP180;6932;51.438;5.470;2023-04-03T01:44:14;102574.00;;;10.80
15079;BMP180;6932;51.438;5.470;2023-04-03T01:46:40;102571.00;;;10.80
15079;BMP180;6932;51.438;5.470;2023-04-03T01:49:07;102570.00;;;10.70
15079;BMP180;6932;51.438;5.470;2023-04-03T01:51:33;102578.00;;;10.70
15079;BMP180;6932;51.438;5.470;2023-04-03T01:53:59;102581.00;;;10.70
15079;BMP180;6932;51.438;5.470;2023-04-03T01:56:25;102580.00;;;10.70
15079;BMP180;6932;51.438;5.470;2023-04-03T01:58:51;102580.00;;;10.60
15079;BMP180;6932;51.438;5.470;2023-04-03T02:01:16;102581.00;;;10.60
15079;BMP180;6932;51.438;5.470;2023-04-03T02:03:42;102580.00;;;10.60
15079;BMP180;6932;51.438;5.470;2023-04-03T02:06:08;102582.00;;;10.60
15079;BMP180;6932;51.438;5.470;2023-04-03T02:08:34;102577.00;;;10.50
15079;BMP180;6932;51.438;5.470;2023-04-03T02:10:59;102580.00;;;10.50
15079;BMP180;6932;51.438;5.470;2023-04-03T02:13:25;102587.00;;;10.50
15079;BMP180;6932;51.438;5.470;2023-04-03T02:15:51;102583.00;;;10.50
15079;BMP180;6932;51.438;5.470;2023-04-03T02:18:17;102574.00;;;10.40
15079;BMP180;6932;51.438;5.470;2023-04-03T02:20:43;102577.00;;;10.40
15079;BMP180;6932;51.438;5.470;2023-04-03T02:23:10;102584.00;;;10.40
15079;BMP180;6932;51.438;5.470;2023-04-03T02:25:35;102588.00;;;10.40
15079;BMP180;6932;51.438;5.470;2023-04-03T02:28:01;102587.00;;;10.40
15079;BMP180;6932;51.438;5.470;2023-04-03T02:30:27;102582.00;;;10.30
15079;BMP180;6932;51.438;5.470;2023-04-03T02:32:53;102588.00;;;10.30
15079;BMP180;6932;51.438;5.470;2023-04-03T02:35:19;102587.00;;;10.30
15079;BMP180;6932;51.438;5.470;2023-04-03T02:37:45;102597.00;;;10.30
15079;BMP180;6932;51.438;5.470;2023-04-03T02:40:11;102600.00;;;10.20
15079;BMP180;6932;51.438;5.470;2023-04-03T02:42:37;102582.00;;;10.20
15079;BMP180;6932;51.438;5.470;2023-04-03T02:45:04;102596.00;;;10.20
15079;BMP180;6932;51.438;5.470;2023-04-03T02:47:30;102594.00;;;10.10
15079;BMP180;6932;51.438;5.470;2023-04-03T02:49:55;102600.00;;;10.10
15079;BMP180;6932;51.438;5.470;2023-04-03T02:52:21;102598.00;;;10.10
15079;BMP180;6932;51.438;5.470;2023-04-03T02:54:47;102598.00;;;10.10
15079;BMP180;6932;51.438;5.470;2023-04-03T02:57:13;102597.00;;;10.10
15079;BMP180;6932;51.438;5.470;2023-04-03T02:59:39;102600.00;;;10.10
15079;BMP180;6932;51.438;5.470;2023-04-03T03:02:07;102591.00;;;10.00
15079;BMP180;6932;51.438;5.470;2023-04-03T03:04:34;102598.00;;;10.00
15079;BMP180;6932;51.438;5.470;2023-04-03T03:07:01;102606.00;;;10.00
15079;BMP180;6932;51.438;5.470;2023-04-03T03:09:26;102607.00;;;10.00
15079;BMP180;6932;51.438;5.470;2023-04-03T03:11:52;102597.00;;;9.90
15079;BMP180;6932;51.438;5.470;2023-04-03T03:14:18;102596.00;;;9.90
15079;BMP180;6932;51.438;5.470;2023-04-03T03:17:30;102596.00;;;9.90
15079;BMP180;6932;51.438;5.470;2023-04-03T03:19:56;102597.00;;;9.80
15079;BMP180;6932;51.438;5.470;2023-04-03T03:22:22;102593.00;;;9.80
15079;BMP180;6932;51.438;5.470;2023-04-03T03:24:48;102594.00;;;9.80
15079;BMP180;6932;51.438;5.470;2023-04-03T03:27:13;102592.00;;;9.80
15079;BMP180;6932;51.438;5.470;2023-04-03T03:29:42;102599.00;;;9.80
15079;BMP180;6932;51.438;5.470;2023-04-03T03:32:08;102594.00;;;9.70
15079;BMP180;6932;51.438;5.470;2023-04-03T03:34:33;102595.00;;;9.70
15079;BMP180;6932;51.438;5.470;2023-04-03T03:37:00;102606.00;;;9.70
15079;BMP180;6932;51.438;5.470;2023-04-03T03:39:26;102601.00;;;9.70
15079;BMP180;6932;51.438;5.470;2023-04-03T03:41:52;102618.00;;;9.70
15079;BMP180;6932;51.438;5.470;2023-04-03T03:44:19;102608.00;;;9.70
15079;BMP180;6932;51.438;5.470;2023-04-03T03:46:45;102611.00;;;9.70
15079;BMP180;6932;51.438;5.470;2023-04-03T03:49:11;102612.00;;;9.70
15079;BMP180;6932;51.438;5.470;2023-04-03T03:51:39;102618.00;;;9.70
15079;BMP180;6932;51.438;5.470;2023-04-03T03:54:05;102618.00;;;9.60
15079;BMP180;6932;51.438;5.470;2023-04-03T03:56:32;102622.00;;;9.60
15079;BMP180;6932;51.438;5.470;2023-04-03T03:58:58;102632.00;;;9.60
15079;BMP180;6932;51.438;5.470;2023-04-03T04:01:24;102624.00;;;9.60
15079;BMP180;6932;51.438;5.470;2023-04-03T04:03:50;102632.00;;;9.60
15079;BMP180;6932;51.438;5.470;2023-04-03T04:06:16;102631.00;;;9.60
15079;BMP180;6932;51.438;5.470;2023-04-03T04:08:43;102627.00;;;9.60
15079;BMP180;6932;51.438;5.470;2023-04-03T04:11:09;102622.00;;;9.60
15079;BMP180;6932;51.438;5.470;2023-04-03T04:13:35;102614.00;;;9.60
15079;BMP180;6932;51.438;5.470;2023-04-03T04:16:00;102615.00;;;9.60
15079;BMP180;6932;51.438;5.470;2023-04-03T04:18:26;102623.00;;;9.60
15079;BMP180;6932;51.438;5.470;2023-04-03T04:20:52;102622.00;;;9.60
15079;BMP180;6932;51.438;5.470;2023-04-03T04:23:18;102616.00;;;9.60
15079;BMP180;6932;51.438;5.470;2023-04-03T04:25:50;102620.00;;;9.60
15079;BMP180;6932;51.438;5.470;2023-04-03T04:28:16;102619.00;;;9.60
15079;BMP180;6932;51.438;5.470;2023-04-03T04:30:42;102622.00;;;9.50
15079;BMP180;6932;51.438;5.470;2023-04-03T04:33:08;102618.00;;;9.50
15079;BMP180;6932;51.438;5.470;2023-04-03T04:35:34;102613.00;;;9.50
15079;BMP180;6932;51.438;5.470;2023-04-03T04:38:00;102623.00;;;9.50
15079;BMP180;6932;51.438;5.470;2023-04-03T04:40:26;102620.00;;;9.50
15079;BMP180;6932;51.438;5.470;2023-04-03T04:42:52;102620.00;;;9.50
15079;BMP180;6932;51.438;5.470;2023-04-03T04:45:18;102619.00;;;9.50
15079;BMP180;6932;51.438;5.470;2023-04-03T04:47:44;102634.00;;;9.50
15079;BMP180;6932;51.438;5.470;2023-04-03T04:50:10;102634.00;;;9.50
15079;BMP180;6932;51.438;5.470;2023-04-03T04:52:37;102639.00;;;9.50
15079;BMP180;6932;51.438;5.470;2023-04-03T04:55:04;102633.00;;;9.40
15079;BMP180;6932;51.438;5.470;2023-04-03T04:57:30;102641.00;;;9.40
15079;BMP180;6932;51.438;5.470;2023-04-03T04:59:55;102653.00;;;9.40
15079;BMP180;6932;51.438;5.470;2023-04-03T05:02:21;102645.00;;;9.40
15079;BMP180;6932;51.438;5.470;2023-04-03T05:04:47;102647.00;;;9.30
15079;BMP180;6932;51.438;5.470;2023-04-03T05:07:15;102658.00;;;9.30
15079;BMP180;6932;51.438;5.470;2023-04-03T05:09:41;102647.00;;;9.30
15079;BMP180;6932;51.438;5.470;2023-04-03T05:12:07;102648.00;;;9.30
15079;BMP180;6932;51.438;5.470;2023-04-03T05:14:33;102647.00;;;9.30
15079;BMP180;6932;51.438;5.470;2023-04-03T05:16:59;102648.00;;;9.30
15079;BMP180;6932;51.438;5.470;2023-04-03T05:19:25;102647.00;;;9.20
15079;BMP180;6932;51.438;5.470;2023-04-03T05:21:50;102652.00;;;9.20
15079;BMP180;6932;51.438;5.470;2023-04-03T05:24:16;102646.00;;;9.20
15079;BMP180;6932;51.438;5.470;2023-04-03T05:26:43;102662.00;;;9.20
15079;BMP180;6932;51.438;5.470;2023-04-03T05:29:09;102665.00;;;9.20
15079;BMP180;6932;51.438;5.470;2023-04-03T05:31:35;102662.00;;;9.20
15079;BMP180;6932;51.438;5.470;2023-04-03T05:34:02;102663.00;;;9.20
15079;BMP180;6932;51.438;5.470;2023-04-03T05:36:27;102673.00;;;9.20
15079;BMP180;6932;51.438;5.470;2023-04-03T05:38:53;102667.00;;;9.30
15079;BMP180;6932;51.438;5.470;2023-04-03T05:41:22;102673.00;;;9.30
15079;BMP180;6932;51.438;5.470;2023-04-03T05:43:47;102667.00;;;9.30
15079;BMP180;6932;51.438;5.470;2023-04-03T05:46:17;102678.00;;;9.40
15079;BMP180;6932;51.438;5.470;2023-04-03T05:48:44;102672.00;;;9.50
15079;BMP180;6932;51.438;5.470;2023-04-03T05:51:23;102676.00;;;9.60
15079;BMP180;6932;51.438;5.470;2023-04-03T05:53:53;102680.00;;;9.60
15079;BMP180;6932;51.438;5.470;2023-04-03T05:56:20;102680.00;;;9.70
15079;BMP180;6932;51.438;5.470;2023-04-03T05:58:46;102686.00;;;9.80
15079;BMP180;6932;51.438;5.470;2023-04-03T06:01:12;102674.00;;;9.80
15079;BMP180;6932;51.438;5.470;2023-04-03T06:03:38;102680.00;;;9.90
15079;BMP180;6932;51.438;5.470;2023-04-03T06:06:05;102674.00;;;10.00
15079;BMP180;6932;51.438;5.470;2023-04-03T06:08:31;102672.00;;;10.10
15079;BMP180;6932;51.438;5.470;2023-04-03T06:10:58;102680.00;;;10.20
15079;BMP180;6932;51.438;5.470;2023-04-03T06:13:24;102691.00;;;10.30
15079;BMP180;6932;51.438;5.470;2023-04-03T06:15:49;102676.00;;;10.30
15079;BMP180;6932;51.438;5.470;2023-04-03T06:25:37;102698.00;;;10.60
15079;BMP180;6932;51.438;5.470;2023-04-03T06:28:02;102694.00;;;10.60
15079;BMP180;6932;51.438;5.470;2023-04-03T06:30:28;102686.00;;;10.60
15079;BMP180;6932;51.438;5.470;2023-04-03T06:32:54;102687.00;;;10.60
15079;BMP180;6932;51.438;5.470;2023-04-03T06:35:21;102695.00;;;10.60
15079;BMP180;6932;51.438;5.470;2023-04-03T06:37:49;102687.00;;;10.50
15079;BMP180;6932;51.438;5.470;2023-04-03T06:40:24;102703.00;;;10.50
15079;BMP180;6932;51.438;5.470;2023-04-03T06:42:51;102699.00;;;10.40
15079;BMP180;6932;51.438;5.470;2023-04-03T06:45:17;102707.00;;;10.40
15079;BMP180;6932;51.438;5.470;2023-04-03T06:47:43;102701.00;;;10.30
15079;BMP180;6932;51.438;5.470;2023-04-03T06:50:11;102702.00;;;10.30
15079;BMP180;6932;51.438;5.470;2023-04-03T06:52:40;102623.00;;;10.30
15079;BMP180;6932;51.438;5.470;2023-04-03T06:55:07;102630.00;;;10.30
15079;BMP180;6932;51.438;5.470;2023-04-03T06:57:33;102615.00;;;10.20
15079;BMP180;6932;51.438;5.470;2023-04-03T06:59:59;102620.00;;;10.00
15079;BMP180;6932;51.438;5.470;2023-04-03T07:02:25;102719.00;;;9.80
15079;BMP180;6932;51.438;5.470;2023-04-03T07:04:51;102719.00;;;9.90
15079;BMP180;6932;51.438;5.470;2023-04-03T07:07:17;102721.00;;;10.10
15079;BMP180;6932;51.438;5.470;2023-04-03T07:09:43;102717.00;;;10.40
15079;BMP180;6932;51.438;5.470;2023-04-03T07:12:09;102716.00;;;10.60
15079;BMP180;6932;51.438;5.470;2023-04-03T07:14:34;102717.00;;;10.90
15079;BMP180;6932;51.438;5.470;2023-04-03T07:20:41;102719.00;;;11.50
15079;BMP180;6932;51.438;5.470;2023-04-03T07:23:07;102727.00;;;11.70
15079;BMP180;6932;51.438;5.470;2023-04-03T07:25:33;102726.00;;;11.90
15079;BMP180;6932;51.438;5.470;2023-04-03T07:27:59;102731.00;;;12.10
15079;BMP180;6932;51.438;5.470;2023-04-03T07:30:25;102725.00;;;12.30
15079;BMP180;6932;51.438;5.470;2023-04-03T07:32:52;102735.00;;;12.40
15079;BMP180;6932;51.438;5.470;2023-04-03T07:42:47;102724.00;;;12.80
15079;BMP180;6932;51.438;5.470;2023-04-03T07:45:13;102732.00;;;12.90
15079;BMP180;6932;51.438;5.470;2023-04-03T07:47:38;102737.00;;;13.00
15079;BMP180;6932;51.438;5.470;2023-04-03T07:50:05;102740.00;;;13.10
15079;BMP180;6932;51.438;5.470;2023-04-03T07:52:31;102744.00;;;13.20
15079;BMP180;6932;51.438;5.470;2023-04-03T07:54:57;102737.00;;;13.30
15079;BMP180;6932;51.438;5.470;2023-04-03T07:57:22;102727.00;;;13.40
15079;BMP180;6932;51.438;5.470;2023-04-03T07:59:48;102730.00;;;13.50
15079;BMP180;6932;51.438;5.470;2023-04-03T08:02:14;102731.00;;;13.60
15079;BMP180;6932;51.438;5.470;2023-04-03T08:04:40;102745.00;;;13.70
15079;BMP180;6932;51.438;5.470;2023-04-03T08:07:05;102739.00;;;13.70
15079;BMP180;6932;51.438;5.470;2023-04-03T08:09:31;102734.00;;;13.70
15079;BMP180;6932;51.438;5.470;2023-04-03T08:11:58;102735.00;;;13.80
15079;BMP180;6932;51.438;5.470;2023-04-03T08:14:24;102739.00;;;13.80
15079;BMP180;6932;51.438;5.470;2023-04-03T08:16:50;102744.00;;;13.90
15079;BMP180;6932;51.438;5.470;2023-04-03T08:19:17;102750.00;;;14.00
15079;BMP180;6932;51.438;5.470;2023-04-03T08:21:44;102741.00;;;14.00
15079;BMP180;6932;51.438;5.470;2023-04-03T08:24:11;102752.00;;;14.00
15079;BMP180;6932;51.438;5.470;2023-04-03T08:26:36;102737.00;;;14.00
15079;BMP180;6932;51.438;5.470;2023-04-03T08:29:03;102746.00;;;14.10
15079;BMP180;6932;51.438;5.470;2023-04-03T08:31:29;102734.00;;;14.10
15079;BMP180;6932;51.438;5.470;2023-04-03T08:34:07;102740.00;;;14.20
15079;BMP180;6932;51.438;5.470;2023-04-03T08:36:34;102746.00;;;14.30
15079;BMP180;6932;51.438;5.470;2023-04-03T08:39:00;102743.00;;;14.40
15079;BMP180;6932;51.438;5.470;2023-04-03T08:41:32;102756.00;;;14.60
15079;BMP180;6932;51.438;5.470;2023-04-03T08:47:42;102760.00;;;14.80
15079;BMP180;6932;51.438;5.470;2023-04-03T08:50:02;102756.00;;;14.80
15079;BMP180;6932;51.438;5.470;2023-04-03T08:52:38;102756.00;;;14.90
15079;BMP180;6932;51.438;5.470;2023-04-03T08:57:41;102761.00;;;14.90
15079;BMP180;6932;51.438;5.470;2023-04-03T09:00:23;102756.00;;;15.00
15079;BMP180;6932;51.438;5.470;2023-04-03T09:02:55;102763.00;;;15.10
15079;BMP180;6932;51.438;5.470;2023-04-03T09:05:40;102759.00;;;15.10
15079;BMP180;6932;51.438;5.470;2023-04-03T09:08:35;102763.00;;;15.20
15079;BMP180;6932;51.438;5.470;2023-04-03T09:11:12;102756.00;;;15.30
15079;BMP180;6932;51.438;5.470;2023-04-03T09:13:53;102762.00;;;15.30
15079;BMP180;6932;51.438;5.470;2023-04-03T09:19:39;102754.00;;;15.40
15079;BMP180;6932;51.438;5.470;2023-04-03T09:22:27;102757.00;;;15.40
15079;BMP180;6932;51.438;5.470;2023-04-03T09:25:34;102752.00;;;15.50
15079;BMP180;6932;51.438;5.470;2023-04-03T09:28:04;102750.00;;;15.50
15079;BMP180;6932;51.438;5.470;2023-04-03T09:41:38;102749.00;;;15.40
15079;BMP180;6932;51.438;5.470;2023-04-03T09:44:24;102760.00;;;15.40
15079;BMP180;6932;51.438;5.470;2023-04-03T09:46:51;102739.00;;;15.40
15079;BMP180;6932;51.438;5.470;2023-04-03T09:49:18;102743.00;;;15.50
15079;BMP180;6932;51.438;5.470;2023-04-03T09:51:45;102749.00;;;15.50
15079;BMP180;6932;51.438;5.470;2023-04-03T09:56:58;102753.00;;;15.60
15079;BMP180;6932;51.438;5.470;2023-04-03T09:59:25;102740.00;;;15.60
15079;BMP180;6932;51.438;5.470;2023-04-03T10:05:41;102729.00;;;15.50
15079;BMP180;6932;51.438;5.470;2023-04-03T10:08:21;102734.00;;;15.50
15079;BMP180;6932;51.438;5.470;2023-04-03T10:11:16;102724.00;;;15.50
15079;BMP180;6932;51.438;5.470;2023-04-03T10:14:01;102731.00;;;15.50
15079;BMP180;6932;51.438;5.470;2023-04-03T10:20:00;102728.00;;;15.50
15079;BMP180;6932;51.438;5.470;2023-04-03T11:00:21;102703.00;;;15.30
15079;BMP180;6932;51.438;5.470;2023-04-03T11:03:03;102705.00;;;15.40
15079;BMP180;6932;51.438;5.470;2023-04-03T11:05:44;102696.00;;;15.40
15079;BMP180;6932;51.438;5.470;2023-04-03T11:08:42;102689.00;;;15.40
15079;BMP180;6932;51.438;5.470;2023-04-03T11:11:17;102690.00;;;15.30
15079;BMP180;6932;51.438;5.470;2023-04-03T11:17:39;102693.00;;;15.30
15079;BMP180;6932;51.438;5.470;2023-04-03T11:20:19;102685.00;;;15.20
15079;BMP180;6932;51.438;5.470;2023-04-03T11:25:40;102674.00;;;15.30
15079;BMP180;6932;51.438;5.470;2023-04-03T11:28:13;102675.00;;;15.40
15079;BMP180;6932;51.438;5.470;2023-04-03T11:31:09;102664.00;;;15.50
15079;BMP180;6932;51.438;5.470;2023-04-03T11:36:34;102672.00;;;15.70
15079;BMP180;6932;51.438;5.470;2023-04-03T11:39:25;102669.00;;;15.80
15079;BMP180;6932;51.438;5.470;2023-04-03T11:41:52;102665.00;;;15.80
15079;BMP180;6932;51.438;5.470;2023-04-03T11:44:37;102664.00;;;15.80
15079;BMP180;6932;51.438;5.470;2023-04-03T11:47:06;102648.00;;;15.70
15079;BMP180;6932;51.438;5.470;2023-04-03T11:50:00;102659.00;;;15.70
15079;BMP180;6932;51.438;5.470;2023-04-03T12:04:43;102668.00;;;15.40
15079;BMP180;6932;51.438;5.470;2023-04-03T12:07:29;102646.00;;;15.40
15079;BMP180;6932;51.438;5.470;2023-04-03T12:09:58;102647.00;;;15.40
15079;BMP180;6932;51.438;5.470;2023-04-03T12:12:36;102652.00;;;15.40
15079;BMP180;6932;51.438;5.470;2023-04-03T12:15:38;102661.00;;;15.40
15079;BMP180;6932;51.438;5.470;2023-04-03T12:21:11;102642.00;;;15.20
15079;BMP180;6932;51.438;5.470;2023-04-03T12:24:04;102645.00;;;15.20
15079;BMP180;6932;51.438;5.470;2023-04-03T12:26:46;102633.00;;;15.20
15079;BMP180;6932;51.438;5.470;2023-04-03T12:38:32;102626.00;;;15.10
15079;BMP180;6932;51.438;5.470;2023-04-03T12:42:01;102640.00;;;15.20
15079;BMP180;6932;51.438;5.470;2023-04-03T12:47:02;102624.00;;;15.20
15079;BMP180;6932;51.438;5.470;2023-04-03T12:49:42;102615.00;;;15.20
15079;BMP180;6932;51.438;5.470;2023-04-03T12:52:39;102615.00;;;15.20
15079;BMP180;6932;51.438;5.470;2023-04-03T12:55:20;102609.00;;;15.10
15079;BMP180;6932;51.438;5.470;2023-04-03T12:57:46;102603.00;;;15.10
15079;BMP180;6932;51.438;5.470;2023-04-03T13:00:34;102603.00;;;15.10
15079;BMP180;6932;51.438;5.470;2023-04-03T13:06:44;102588.00;;;15.00
15079;BMP180;6932;51.438;5.470;2023-04-03T13:09:30;102599.00;;;15.10
15079;BMP180;6932;51.438;5.470;2023-04-03T13:12:07;102584.00;;;15.10
15079;BMP180;6932;51.438;5.470;2023-04-03T13:14:36;102589.00;;;15.10
15079;BMP180;6932;51.438;5.470;2023-04-03T13:17:15;102592.00;;;15.10
15079;BMP180;6932;51.438;5.470;2023-04-03T13:19:43;102591.00;;;15.10
15079;BMP180;6932;51.438;5.470;2023-04-03T13:22:48;102587.00;;;15.10
15079;BMP180;6932;51.438;5.470;2023-04-03T13:25:16;102585.00;;;15.00
15079;BMP180;6932;51.438;5.470;2023-04-03T13:27:44;102589.00;;;15.00
15079;BMP180;6932;51.438;5.470;2023-04-03T13:30:39;102573.00;;;15.10
15079;BMP180;6932;51.438;5.470;2023-04-03T13:33:22;102570.00;;;15.00
15079;BMP180;6932;51.438;5.470;2023-04-03T13:36:02;102586.00;;;15.00
15079;BMP180;6932;51.438;5.470;2023-04-03T13:38:31;102573.00;;;15.10
15079;BMP180;6932;51.438;5.470;2023-04-03T13:41:04;102570.00;;;15.10
15079;BMP180;6932;51.438;5.470;2023-04-03T13:43:35;102567.00;;;15.10
15079;BMP180;6932;51.438;5.470;2023-04-03T13:46:28;102574.00;;;15.10
15079;BMP180;6932;51.438;5.470;2023-04-03T13:48:56;102570.00;;;15.10
15079;BMP180;6932;51.438;5.470;2023-04-03T13:51:28;102575.00;;;15.10
15079;BMP180;6932;51.438;5.470;2023-04-03T13:54:00;102575.00;;;15.10
15079;BMP180;6932;51.438;5.470;2023-04-03T13:56:36;102570.00;;;15.10
15079;BMP180;6932;51.438;5.470;2023-04-03T14:09:53;102567.00;;;14.90
15079;BMP180;6932;51.438;5.470;2023-04-03T14:12:27;102544.00;;;15.00
15079;BMP180;6932;51.438;5.470;2023-04-03T14:14:55;102582.00;;;15.00
15079;BMP180;6932;51.438;5.470;2023-04-03T14:17:26;102555.00;;;15.00
15079;BMP180;6932;51.438;5.470;2023-04-03T14:19:54;102565.00;;;15.00
15079;BMP180;6932;51.438;5.470;2023-04-03T14:22:31;102553.00;;;15.00
15079;BMP180;6932;51.438;5.470;2023-04-03T14:24:58;102544.00;;;15.00
15079;BMP180;6932;51.438;5.470;2023-04-03T14:53:13;102550.00;;;15.00
15079;BMP180;6932;51.438;5.470;2023-04-03T14:55:45;102547.00;;;15.00
15079;BMP180;6932;51.438;5.470;2023-04-03T14:58:17;102543.00;;;15.00
15079;BMP180;6932;51.438;5.470;2023-04-03T15:00:44;102547.00;;;15.00
15079;BMP180;6932;51.438;5.470;2023-04-03T15:03:20;102535.00;;;15.00
15079;BMP180;6932;51.438;5.470;2023-04-03T15:05:48;102524.00;;;15.00
15079;BMP180;6932;51.438;5.470;2023-04-03T15:08:23;102524.00;;;15.00
15079;BMP180;6932;51.438;5.470;2023-04-03T15:10:51;102534.00;;;15.00
15079;BMP180;6932;51.438;5.470;2023-04-03T15:13:22;102517.00;;;15.00
15079;BMP180;6932;51.438;5.470;2023-04-03T15:15:50;102526.00;;;15.00
15079;BMP180;6932;51.438;5.470;2023-04-03T15:18:24;102518.00;;;15.00
15079;BMP180;6932;51.438;5.470;2023-04-03T15:20:52;102529.00;;;15.00
15079;BMP180;6932;51.438;5.470;2023-04-03T15:23:18;102451.00;;;15.00
15079;BMP180;6932;51.438;5.470;2023-04-03T15:25:47;102435.00;;;14.90
15079;BMP180;6932;51.438;5.470;2023-04-03T15:29:06;102428.00;;;14.70
15079;BMP180;6932;51.438;5.470;2023-04-03T15:31:32;102424.00;;;14.40
15079;BMP180;6932;51.438;5.470;2023-04-03T15:33:58;102429.00;;;14.30
15079;BMP180;6932;51.438;5.470;2023-04-03T15:36:24;102429.00;;;14.20
15079;BMP180;6932;51.438;5.470;2023-04-03T15:38:50;102419.00;;;14.10
15079;BMP180;6932;51.438;5.470;2023-04-03T15:41:16;102436.00;;;14.00
15079;BMP180;6932;51.438;5.470;2023-04-03T15:43:42;102525.00;;;13.90
15079;BMP180;6932;51.438;5.470;2023-04-03T15:46:08;102534.00;;;13.90
15079;BMP180;6932;51.438;5.470;2023-04-03T15:48:36;102531.00;;;14.00
15079;BMP180;6932;51.438;5.470;2023-04-03T15:51:02;102516.00;;;14.00
15079;BMP180;6932;51.438;5.470;2023-04-03T15:53:28;102521.00;;;14.10
15079;BMP180;6932;51.438;5.470;2023-04-03T15:55:53;102514.00;;;14.30
15079;BMP180;6932;51.438;5.470;2023-04-03T15:58:19;102520.00;;;14.30
15079;BMP180;6932;51.438;5.470;2023-04-03T16:00:45;102531.00;;;14.40
15079;BMP180;6932;51.438;5.470;2023-04-03T16:03:16;102514.00;;;14.50
15079;BMP180;6932;51.438;5.470;2023-04-03T16:09:11;102530.00;;;14.50
15079;BMP180;6932;51.438;5.470;2023-04-03T16:11:37;102526.00;;;14.60
15079;BMP180;6932;51.438;5.470;2023-04-03T16:14:06;102526.00;;;14.60
15079;BMP180;6932;51.438;5.470;2023-04-03T16:16:32;102524.00;;;14.70
15079;BMP180;6932;51.438;5.470;2023-04-03T16:18:58;102518.00;;;14.70
15079;BMP180;6932;51.438;5.470;2023-04-03T16:21:24;102517.00;;;14.80
15079;BMP180;6932;51.438;5.470;2023-04-03T16:23:50;102541.00;;;14.80
15079;BMP180;6932;51.438;5.470;2023-04-03T16:26:16;102533.00;;;14.80
15079;BMP180;6932;51.438;5.470;2023-04-03T16:28:43;102522.00;;;14.80
15079;BMP180;6932;51.438;5.470;2023-04-03T16:31:10;102532.00;;;14.80
15079;BMP180;6932;51.438;5.470;2023-04-03T16:33:36;102534.00;;;14.80
15079;BMP180;6932;51.438;5.470;2023-04-03T16:36:04;102534.00;;;14.80
15079;BMP180;6932;51.438;5.470;2023-04-03T16:38:30;102529.00;;;14.80
15079;BMP180;6932;51.438;5.470;2023-04-03T16:40:56;102541.00;;;14.70
15079;BMP180;6932;51.438;5.470;2023-04-03T16:43:26;102538.00;;;14.70
15079;BMP180;6932;51.438;5.470;2023-04-03T16:49:43;102538.00;;;14.60
15079;BMP180;6932;51.438;5.470;2023-04-03T16:52:08;102540.00;;;14.60
15079;BMP180;6932;51.438;5.470;2023-04-03T16:54:34;102538.00;;;14.60
15079;BMP180;6932;51.438;5.470;2023-04-03T16:57:00;102455.00;;;14.70
15079;BMP180;6932;51.438;5.470;2023-04-03T16:59:26;102455.00;;;14.60
15079;BMP180;6932;51.438;5.470;2023-04-03T17:01:51;102461.00;;;14.40
15079;BMP180;6932;51.438;5.470;2023-04-03T17:04:17;102534.00;;;14.10
15079;BMP180;6932;51.438;5.470;2023-04-03T17:06:43;102538.00;;;14.00
15079;BMP180;6932;51.438;5.470;2023-04-03T17:09:09;102543.00;;;14.00
15079;BMP180;6932;51.438;5.470;2023-04-03T17:11:35;102535.00;;;14.10
15079;BMP180;6932;51.438;5.470;2023-04-03T17:14:01;102537.00;;;14.10
15079;BMP180;6932;51.438;5.470;2023-04-03T17:16:28;102532.00;;;14.20
15079;BMP180;6932;51.438;5.470;2023-04-03T17:18:55;102545.00;;;14.20